»·PEaware :: N484GE KSNA-L71

N484GE :: KSNA-L71

FLIGHT INFORMATION

Flight Status: Arrived
Operator: Privately registered:
United States
More flights under this callsign
Pilot: Ronald B. (5322)
Aircraft: CESSNA 172 SKYHAWK
(C172)
More flights by this aircraft type
Origin: KSNA John Wayne-Orange Co
United States
Destination: L71 California City Mun
United States
More flights between these airports :: More routes between these airports
Route: +POM PMD
File this flight plan on PilotEdge
Remarks:
Altitude:
(Current/Filed)
8,500ft
Speed:
(Current/Filed)
110kts
Departed: 25-Nov-16 10:17 AM
Arrived: 25-Nov-16 11:16 AM
Distance/Time
Traveled:
89nm/0:58
Distance/Time
To Go:
Arrived

Flight Plot

Page will automatically refresh every two minutes.

Flight plan parsing failed; only flown route is shown


Map Options




Map Legend


Flown Route
Filed Route
Departure Airport
Arrival Airport
Navaid (VOR, NDB)
Fix

Horizontal Profiles

Position Reports

Time Latitude Longitude Heading Altitude Ground
Speed
25-Nov-16 09:42 33.670962 -117.867664 213 59ft 0kts
25-Nov-16 09:43 33.670962 -117.867664 213 59ft 0kts
25-Nov-16 09:44 33.670962 -117.867664 213 59ft 0kts
25-Nov-16 09:45 33.670962 -117.867664 213 59ft 0kts
25-Nov-16 09:46 33.670962 -117.867664 213 59ft 0kts
25-Nov-16 09:47 33.670962 -117.867664 213 59ft 0kts
25-Nov-16 09:48 33.670962 -117.867664 213 59ft 0kts
25-Nov-16 09:49 33.670962 -117.867664 213 59ft 0kts
25-Nov-16 09:50 33.670962 -117.867664 213 59ft 0kts
25-Nov-16 09:51 33.670962 -117.867664 213 59ft 0kts
25-Nov-16 09:52 33.670962 -117.867664 213 59ft 0kts
25-Nov-16 09:53 33.670956 -117.867668 213 59ft 0kts
25-Nov-16 09:54 33.670951 -117.867672 213 59ft 0kts
25-Nov-16 09:55 33.670946 -117.867676 213 59ft 0kts
25-Nov-16 09:56 33.670940 -117.867681 213 59ft 0kts
25-Nov-16 09:57 33.670933 -117.867687 213 59ft 0kts
25-Nov-16 09:58 33.670927 -117.867691 213 59ft 0kts
25-Nov-16 09:59 33.670921 -117.867696 213 59ft 0kts
25-Nov-16 10:00 33.670916 -117.867700 213 59ft 0kts
25-Nov-16 10:01 33.670913 -117.867703 213 59ft 0kts
25-Nov-16 10:02 33.670908 -117.867706 213 59ft 0kts
25-Nov-16 10:03 33.670903 -117.867710 213 59ft 0kts
25-Nov-16 10:04 33.670899 -117.867713 213 59ft 0kts
25-Nov-16 10:05 33.671152 -117.868444 325 59ft 8kts
25-Nov-16 10:06 33.673749 -117.867216 338 59ft 9kts
25-Nov-16 10:07 33.678094 -117.864495 27 59ft 24kts
25-Nov-16 10:08 33.679729 -117.863877 295 59ft 0kts
25-Nov-16 10:09 33.679750 -117.863928 295 59ft 5kts
25-Nov-16 10:10 33.670677 -117.870226 210 384ft 82kts
25-Nov-16 10:11 33.654600 -117.889451 273 1429ft 82kts
25-Nov-16 10:12 33.675800 -117.903817 351 1782ft 92kts
25-Nov-16 10:13 33.701710 -117.913162 340 1966ft 101kts
25-Nov-16 10:14 33.728544 -117.926191 344 2178ft 96kts
25-Nov-16 10:15 33.749934 -117.919787 39 2785ft 91kts
25-Nov-16 10:16 33.770465 -117.900760 49 3373ft 95kts
25-Nov-16 10:17 33.789176 -117.873899 52 4076ft 109kts
25-Nov-16 10:18 33.807619 -117.847421 52 4758ft 98kts
25-Nov-16 10:19 33.824474 -117.823271 52 5441ft 91kts
25-Nov-16 10:20 33.842980 -117.796665 53 6030ft 113kts
25-Nov-16 10:21 33.869266 -117.783955 0 6509ft 106kts
25-Nov-16 10:22 33.901861 -117.783464 0 6656ft 128kts
25-Nov-16 10:23 33.937860 -117.782833 0 6506ft 130kts
25-Nov-16 10:24 33.973740 -117.782158 0 6488ft 120kts
25-Nov-16 10:25 34.003636 -117.784164 355 6513ft 102kts
25-Nov-16 10:26 34.031804 -117.787634 355 6524ft 100kts
25-Nov-16 10:27 34.062940 -117.791383 355 6874ft 109kts
25-Nov-16 10:28 34.090991 -117.797153 322 7548ft 99kts
25-Nov-16 10:29 34.116273 -117.817125 324 8290ft 115kts
25-Nov-16 10:30 34.146609 -117.837851 332 8518ft 136kts
25-Nov-16 10:31 34.179944 -117.855603 336 8517ft 121kts
25-Nov-16 10:32 34.210995 -117.870348 338 8507ft 125kts
25-Nov-16 10:33 34.246445 -117.886513 338 8483ft 134kts
25-Nov-16 10:34 34.278691 -117.900981 338 8507ft 119kts
25-Nov-16 10:35 34.310021 -117.913277 348 8519ft 118kts
25-Nov-16 10:36 34.343949 -117.925178 336 8509ft 128kts
25-Nov-16 10:37 34.372840 -117.947251 330 8527ft 124kts
25-Nov-16 10:38 34.406062 -117.963754 338 8498ft 127kts
25-Nov-16 10:39 34.439431 -117.978652 338 8510ft 126kts
25-Nov-16 10:40 34.471546 -117.992846 338 8532ft 121kts
25-Nov-16 10:41 34.504348 -118.007041 337 8393ft 126kts
25-Nov-16 10:42 34.536481 -118.021311 336 7887ft 121kts
25-Nov-16 10:43 34.567990 -118.035430 337 7380ft 121kts
25-Nov-16 10:44 34.599351 -118.050657 335 6862ft 121kts
25-Nov-16 10:45 34.629677 -118.065786 335 6557ft 108kts
25-Nov-16 10:46 34.658150 -118.069449 1 6569ft 102kts
25-Nov-16 10:47 34.687955 -118.072597 350 6561ft 110kts
25-Nov-16 10:48 34.716991 -118.077208 351 6559ft 102kts
25-Nov-16 10:49 34.745235 -118.081697 351 6556ft 101kts
25-Nov-16 10:50 34.773158 -118.086021 351 6559ft 101kts
25-Nov-16 10:51 34.796473 -118.089528 351 6561ft 101kts
25-Nov-16 10:52 34.825242 -118.094112 350 6557ft 107kts
25-Nov-16 10:53 34.854098 -118.098553 351 6553ft 102kts
25-Nov-16 10:54 34.887166 -118.103608 351 6551ft 102kts
25-Nov-16 10:55 34.915391 -118.108020 351 6565ft 102kts
25-Nov-16 10:56 34.941755 -118.112200 351 6546ft 119kts
25-Nov-16 10:57 34.975106 -118.117429 354 6017ft 127kts
25-Nov-16 10:58 35.009812 -118.107514 15 5540ft 117kts
25-Nov-16 10:59 35.039823 -118.097636 16 5545ft 115kts
25-Nov-16 11:00 35.070775 -118.086712 27 5544ft 115kts
25-Nov-16 11:01 35.092698 -118.059062 47 5544ft 113kts
25-Nov-16 11:02 35.119768 -118.035992 26 4952ft 119kts
25-Nov-16 11:03 35.147389 -118.027251 7 4219ft 95kts
25-Nov-16 11:04 35.172966 -118.024544 331 3516ft 89kts
25-Nov-16 11:05 35.169206 -118.041862 178 3422ft 55kts
25-Nov-16 11:06 35.163644 -118.021466 73 3215ft 89kts
25-Nov-16 11:07 35.169231 -117.993648 104 3046ft 71kts
25-Nov-16 11:08 35.154519 -118.001083 259 2684ft 66kts
25-Nov-16 11:09 35.151326 -118.016279 251 2457ft 8kts
25-Nov-16 11:10 35.150601 -118.015505 168 2457ft 6kts
25-Nov-16 11:11 35.150142 -118.015720 268 2457ft 0kts

Navigation Log

Ident Type
Flight plan parsing failed, navigation log unavailable